KPBG/PBG METAR and TAF weather

Enter ICAO airport designator
Station Type Date Time Source
KPBG METAR 2019/06/26 05:53 UTC NOAA

KPBG 260553Z AUTO 00000KT 10SM CLR 18/15 A2992 RMK AO2 SLP131 T01830150 10261 20161 51019


Station Type Date Time Source
KPBG Decoded METAR 2019/06/26 05:53 UTC NOAA

PLATTSBURGH INTERNATIONAL AIRPORT, NY, United States (KPBG) 44-39N 073-28W
Jun 26, 2019 - 01:53 AM EDT / 2019.06.26 0553 UTC
Wind: Calm:0
Visibility: 10 mile(s):0
Sky conditions: clear
Temperature: 64.9 F (18.3 C)
Dew Point: 59.0 F (15.0 C)
Relative Humidity: 81%
Pressure (altimeter): 29.92 in. Hg (1013 hPa)
Pressure tendency: 0.06 inches (1.9 hPa) higher than three hours ago
ob: KPBG 260553Z AUTO 00000KT 10SM CLR 18/15 A2992 RMK AO2 SLP131 T01830150 10261 20161 51019
cycle: 6

Station Type Date Time Source
KPBG TAF 2019/06/26 06:42 UTC NOAA

TAF KPBG 260535Z 2606/2706 VRB02KT P6SM FEW080
FM261200 14008KT P6SM FEW090
FM262000 13008KT P6SM VCSH SCT060 SCT100
FM270000 VRB02KT P6SM FEW100

Example: see airport list